createdAt,value
2018-04-22T00:02:16.541Z,12.60
2018-04-22T00:04:47.359Z,12.60
2018-04-22T00:07:27.286Z,12.50
2018-04-22T00:10:01.478Z,12.50
2018-04-22T00:15:23.967Z,12.40
2018-04-22T00:18:05.978Z,12.30
2018-04-22T00:20:40.872Z,12.20
2018-04-22T00:23:18.063Z,12.20
2018-04-22T00:25:58.693Z,12.10
2018-04-22T00:28:39.190Z,12.10
2018-04-22T00:31:15.709Z,12.10
2018-04-22T00:33:50.961Z,12.10
2018-04-22T00:36:25.680Z,12.00
2018-04-22T00:39:12.733Z,11.90
2018-04-22T00:41:52.188Z,11.90
2018-04-22T00:44:40.581Z,11.80
2018-04-22T00:47:26.846Z,11.80
2018-04-22T00:50:06.690Z,11.80
2018-04-22T00:52:46.622Z,11.80
2018-04-22T00:55:24.260Z,11.80
2018-04-22T00:58:04.621Z,11.80
2018-04-22T01:00:41.699Z,11.70
2018-04-22T01:03:25.534Z,11.70
2018-04-22T01:06:08.266Z,11.80
2018-04-22T01:08:47.359Z,11.70
2018-04-22T01:11:26.213Z,11.70
2018-04-22T01:14:05.899Z,11.70
2018-04-22T01:16:50.720Z,11.60
2018-04-22T01:19:30.046Z,11.60
2018-04-22T01:22:06.265Z,11.50
2018-04-22T01:24:49.585Z,11.50
2018-04-22T01:27:28.408Z,11.50
2018-04-22T01:30:03.623Z,11.40
2018-04-22T01:32:41.886Z,11.30
2018-04-22T01:35:19.929Z,11.30
2018-04-22T01:38:07.910Z,11.40
2018-04-22T01:56:15.200Z,11.20
2018-04-22T01:58:51.715Z,11.10
2018-04-22T02:01:26.172Z,11.10
2018-04-22T02:03:59.440Z,11.10
2018-04-22T02:06:33.826Z,11.00
2018-04-22T02:09:11.683Z,11.00
2018-04-22T02:11:46.125Z,11.00
2018-04-22T02:14:21.702Z,11.00
2018-04-22T02:17:01.832Z,10.90
2018-04-22T02:22:16.319Z,10.90
2018-04-22T02:24:55.002Z,11.00
2018-04-22T02:27:35.233Z,10.90
2018-04-22T02:30:10.263Z,10.80
2018-04-22T02:32:51.509Z,10.80
2018-04-22T02:35:27.826Z,10.80
2018-04-22T02:38:04.450Z,10.80
2018-04-22T02:40:40.209Z,10.70
2018-04-22T02:43:17.032Z,10.70
2018-04-22T02:45:58.378Z,10.70
2018-04-22T02:48:32.674Z,10.60
2018-04-22T02:51:10.338Z,10.60
2018-04-22T02:53:46.863Z,10.50
2018-04-22T02:56:20.920Z,10.50
2018-04-22T02:59:06.242Z,10.50
2018-04-22T03:01:41.519Z,10.50
2018-04-22T03:04:18.914Z,10.50
2018-04-22T03:06:49.946Z,10.50
2018-04-22T03:09:23.830Z,10.40
2018-04-22T03:11:54.309Z,10.40
2018-04-22T03:14:25.043Z,10.30
2018-04-22T03:16:55.526Z,10.40
2018-04-22T03:19:26.709Z,10.30
2018-04-22T03:21:57.240Z,10.40
2018-04-22T03:24:27.712Z,10.30
2018-04-22T03:26:58.153Z,10.30
2018-04-22T03:29:29.430Z,10.30
2018-04-22T03:31:59.928Z,10.30
2018-04-22T03:34:32.045Z,10.20
2018-04-22T03:37:02.606Z,10.20
2018-04-22T03:39:33.305Z,10.20
2018-04-22T03:42:04.214Z,10.20
2018-04-22T03:44:34.718Z,10.20
2018-04-22T03:47:05.233Z,10.20
2018-04-22T03:49:35.920Z,10.10
2018-04-22T03:52:06.857Z,10.10
2018-04-22T03:54:37.354Z,10.10
2018-04-22T03:57:07.961Z,10.10
2018-04-22T03:59:39.128Z,10.10
2018-04-22T04:02:09.602Z,10.10
2018-04-22T04:04:40.037Z,10.10
2018-04-22T04:07:10.518Z,10.10
2018-04-22T04:09:41.129Z,10.20
2018-04-22T04:12:11.737Z,10.20
2018-04-22T04:14:42.206Z,10.10
2018-04-22T04:17:13.146Z,10.20
2018-04-22T04:19:54.327Z,10.10
2018-04-22T04:22:56.357Z,10.00
2018-04-22T04:27:48.949Z,10.00
2018-04-22T04:30:20.729Z,10.00
2018-04-22T04:32:52.310Z,10.00
2018-04-22T04:35:28.316Z,10.00
2018-04-22T04:37:58.812Z,10.00
2018-04-22T04:40:31.117Z,10.00
2018-04-22T04:43:01.777Z,10.00
2018-04-22T04:45:32.712Z,10.00
2018-04-22T04:48:03.545Z,10.00
2018-04-22T04:50:34.053Z,10.00
2018-04-22T04:53:05.093Z,10.10
2018-04-22T04:55:35.542Z,10.10
2018-04-22T04:58:07.319Z,10.10
2018-04-22T05:00:37.830Z,10.10
2018-04-22T05:03:08.659Z,10.10
2018-04-22T05:05:40.880Z,10.10
2018-04-22T05:08:11.577Z,10.20
2018-04-22T05:10:50.247Z,10.20
2018-04-22T05:13:33.299Z,10.30
2018-04-22T05:16:08.701Z,10.40
2018-04-22T05:18:50.019Z,10.40
2018-04-22T05:21:28.110Z,10.30
2018-04-22T05:24:02.850Z,10.30
2018-04-22T05:26:44.851Z,10.30
2018-04-22T05:29:19.255Z,10.40
2018-04-22T05:31:56.413Z,10.40
2018-04-22T05:34:30.516Z,10.50
2018-04-22T05:37:02.266Z,10.60
2018-04-22T05:39:32.975Z,10.60
2018-04-22T05:42:18.943Z,10.70
2018-04-22T05:44:51.374Z,10.80
2018-04-22T05:47:21.927Z,10.90
2018-04-22T05:49:53.325Z,11.10
2018-04-22T05:52:24.242Z,11.00
2018-04-22T05:54:55.391Z,11.20
2018-04-22T05:57:26.097Z,11.20
2018-04-22T05:59:57.749Z,11.50
2018-04-22T06:02:28.507Z,11.50
2018-04-22T06:04:59.073Z,11.60
2018-04-22T06:07:29.802Z,11.70
2018-04-22T06:10:00.920Z,11.80
2018-04-22T06:12:31.698Z,12.00
2018-04-22T06:15:02.261Z,12.20
2018-04-22T06:17:32.880Z,12.40
2018-04-22T06:20:04.378Z,12.30
2018-04-22T06:22:35.144Z,12.60
2018-04-22T06:25:05.896Z,12.60
2018-04-22T06:27:37.598Z,13.00
2018-04-22T06:30:08.345Z,13.00
2018-04-22T06:32:38.896Z,13.20
2018-04-22T06:35:09.493Z,13.30
2018-04-22T06:37:41.010Z,13.30
2018-04-22T06:40:11.575Z,13.30
2018-04-22T06:42:42.210Z,13.20
2018-04-22T06:45:13.455Z,13.30
2018-04-22T06:47:44.005Z,13.30
2018-04-22T06:50:16.861Z,13.60
2018-04-22T06:52:49.890Z,13.60
2018-04-22T06:55:21.312Z,13.80
2018-04-22T06:57:52.766Z,13.80
2018-04-22T07:00:26.051Z,13.80
2018-04-22T07:02:56.668Z,13.90
2018-04-22T07:05:27.572Z,13.90
2018-04-22T07:07:58.753Z,13.80
2018-04-22T07:10:29.962Z,13.80
2018-04-22T07:13:01.485Z,13.80
2018-04-22T07:15:32.007Z,14.00
2018-04-22T07:18:04.053Z,14.00
2018-04-22T07:20:34.633Z,14.10
2018-04-22T07:23:05.236Z,14.40
2018-04-22T07:25:36.049Z,14.40
2018-04-22T07:28:07.885Z,14.50
2018-04-22T07:30:38.544Z,14.40
2018-04-22T07:33:09.153Z,14.80
2018-04-22T07:35:39.965Z,15.00
2018-04-22T07:38:10.938Z,15.10
2018-04-22T07:40:42.128Z,15.60
2018-04-22T07:43:12.700Z,15.90
2018-04-22T07:45:44.049Z,15.80
2018-04-22T07:48:14.716Z,16.00
2018-04-22T07:50:47.279Z,16.20
2018-04-22T07:53:18.296Z,16.10
2018-04-22T07:55:48.920Z,16.40
2018-04-22T07:58:20.197Z,16.90
2018-04-22T08:00:51.121Z,16.80
2018-04-22T08:03:21.716Z,17.10
2018-04-22T08:05:53.064Z,17.10
2018-04-22T08:08:24.746Z,17.50
2018-04-22T08:10:55.317Z,17.50
2018-04-22T08:13:25.899Z,17.70
2018-04-22T08:15:56.637Z,17.80
2018-04-22T08:18:27.281Z,17.40
2018-04-22T08:20:57.869Z,17.90
2018-04-22T08:23:29.192Z,17.90
2018-04-22T08:25:59.903Z,17.90
2018-04-22T08:28:32.800Z,18.40
2018-04-22T08:31:03.358Z,18.40
2018-04-22T08:33:33.933Z,18.80
2018-04-22T08:36:05.284Z,18.50
2018-04-22T08:38:36.068Z,18.50
2018-04-22T08:41:06.872Z,19.00
2018-04-22T08:43:37.453Z,19.40
2018-04-22T08:46:08.189Z,19.40
2018-04-22T08:48:38.694Z,19.40
2018-04-22T08:51:09.532Z,20.00
2018-04-22T08:53:40.196Z,20.40
2018-04-22T08:56:10.732Z,20.50
2018-04-22T08:58:41.395Z,20.40
2018-04-22T09:01:12.118Z,20.10
2018-04-22T09:03:45.072Z,20.50
2018-04-22T09:06:15.600Z,20.70
2018-04-22T09:08:46.158Z,20.50
2018-04-22T09:11:16.707Z,20.80
2018-04-22T09:13:47.329Z,21.30
2018-04-22T09:16:18.893Z,21.60
2018-04-22T09:18:49.518Z,21.60
2018-04-22T09:21:20.834Z,21.70
2018-04-22T09:23:51.497Z,21.70
2018-04-22T09:26:22.176Z,21.50
2018-04-22T09:28:53.564Z,21.20
2018-04-22T09:31:24.063Z,21.10
2018-04-22T09:33:54.613Z,21.70
2018-04-22T09:36:25.397Z,21.50
2018-04-22T09:39:00.129Z,21.80
2018-04-22T09:41:30.746Z,21.60
2018-04-22T09:44:01.375Z,22.00
2018-04-22T09:46:32.756Z,22.50
2018-04-22T09:49:03.550Z,22.50
2018-04-22T09:51:34.190Z,22.90
2018-04-22T09:54:04.909Z,22.70
2018-04-22T09:56:35.486Z,22.30
2018-04-22T09:59:06.147Z,22.60
2018-04-22T10:01:37.360Z,22.80
2018-04-22T10:04:11.145Z,22.60
2018-04-22T10:06:41.860Z,22.60
2018-04-22T10:09:12.388Z,23.20
2018-04-22T10:11:42.996Z,23.10
2018-04-22T10:14:13.886Z,23.80
2018-04-22T10:16:44.581Z,24.00
2018-04-22T10:19:15.189Z,23.40
2018-04-22T10:21:45.915Z,23.20
2018-04-22T10:24:16.552Z,23.50
2018-04-22T10:26:47.240Z,24.00
2018-04-22T10:29:17.866Z,24.00
2018-04-22T10:31:48.496Z,24.60
2018-04-22T10:34:19.181Z,24.90
2018-04-22T10:36:49.806Z,24.50
2018-04-22T10:39:20.568Z,25.10
2018-04-22T10:41:51.128Z,26.10
2018-04-22T10:44:22.785Z,25.30
2018-04-22T10:46:53.476Z,25.30
2018-04-22T10:49:24.449Z,26.30
2018-04-22T10:51:55.194Z,26.80
2018-04-22T10:54:25.804Z,26.60
2018-04-22T10:56:56.557Z,25.50
2018-04-22T10:59:27.125Z,26.20
2018-04-22T11:01:57.940Z,26.90
2018-04-22T11:04:28.732Z,26.90
2018-04-22T11:06:59.364Z,26.40
2018-04-22T11:09:30.131Z,26.10
2018-04-22T11:12:00.826Z,27.00
2018-04-22T11:14:31.884Z,26.80
2018-04-22T11:17:02.620Z,27.20
2018-04-22T11:19:33.235Z,27.40
2018-04-22T11:22:03.830Z,28.30
2018-04-22T11:24:34.922Z,27.70
2018-04-22T11:27:05.536Z,27.40
2018-04-22T11:29:36.192Z,26.70
2018-04-22T11:32:06.970Z,27.30
2018-04-22T11:34:37.564Z,27.30
2018-04-22T11:37:08.474Z,27.30
2018-04-22T11:39:39.982Z,27.30
2018-04-22T11:42:10.625Z,27.30
2018-04-22T11:44:41.165Z,27.50
2018-04-22T11:47:12.022Z,27.50
2018-04-22T11:49:42.566Z,28.20
2018-04-22T11:52:15.329Z,28.80
2018-04-22T11:54:46.798Z,28.40
2018-04-22T11:57:17.514Z,28.40
2018-04-22T11:59:48.594Z,28.10
2018-04-22T12:02:19.322Z,28.40
2018-04-22T12:04:50.637Z,28.20
2018-04-22T12:07:21.623Z,28.20
2018-04-22T12:09:53.322Z,27.90
2018-04-22T12:12:24.101Z,27.90
2018-04-22T12:14:55.245Z,27.50
2018-04-22T12:17:26.649Z,28.10
2018-04-22T12:19:57.296Z,28.00
2018-04-22T12:22:27.952Z,28.00
2018-04-22T12:24:58.534Z,28.50
2018-04-22T12:27:29.206Z,28.60
2018-04-22T12:30:00.380Z,28.00
2018-04-22T12:32:31.013Z,27.60
2018-04-22T12:35:02.653Z,27.30
2018-04-22T12:37:33.357Z,27.30
2018-04-22T12:40:04.048Z,27.90
2018-04-22T12:42:35.076Z,28.40
2018-04-22T12:45:06.569Z,28.40
2018-04-22T12:47:37.072Z,28.40
2018-04-22T12:50:08.238Z,28.00
2018-04-22T12:52:38.764Z,28.30
2018-04-22T12:55:09.387Z,28.20
2018-04-22T12:57:39.774Z,27.40
2018-04-22T13:00:10.188Z,27.50
2018-04-22T13:02:40.566Z,27.70
2018-04-22T13:05:12.225Z,28.20
2018-04-22T13:07:42.654Z,28.20
2018-04-22T13:10:13.463Z,28.60
2018-04-22T13:12:44.028Z,29.00
2018-04-22T13:15:14.510Z,29.30
2018-04-22T13:17:45.469Z,29.70
2018-04-22T13:20:16.046Z,29.30
2018-04-22T13:22:46.640Z,29.20
2018-04-22T13:25:19.378Z,29.60
2018-04-22T13:27:50.588Z,29.90
2018-04-22T13:30:21.954Z,29.60
2018-04-22T13:32:52.493Z,29.60
2018-04-22T13:35:22.939Z,29.10
2018-04-22T13:37:53.512Z,29.00
2018-04-22T13:40:24.232Z,28.70
2018-04-22T13:42:54.667Z,28.60
2018-04-22T13:45:26.630Z,28.60
2018-04-22T13:47:58.089Z,28.70
2018-04-22T13:50:28.717Z,28.70
2018-04-22T13:53:00.389Z,29.20
2018-04-22T13:55:30.996Z,29.30
2018-04-22T13:58:01.528Z,29.80
2018-04-22T14:00:32.200Z,29.60
2018-04-22T14:03:03.516Z,29.60
2018-04-22T14:05:34.120Z,29.70
2018-04-22T14:08:04.808Z,29.90
2018-04-22T14:10:35.326Z,29.40
2018-04-22T14:13:06.806Z,29.60
2018-04-22T14:15:37.386Z,28.70
2018-04-22T14:18:07.952Z,28.70
2018-04-22T14:20:44.568Z,28.80
2018-04-22T14:23:15.567Z,28.00
2018-04-22T14:25:46.001Z,28.00
2018-04-22T14:28:16.566Z,28.00
2018-04-22T14:30:47.269Z,27.90
2018-04-22T14:33:17.822Z,28.40
2018-04-22T14:35:48.333Z,28.60
2018-04-22T14:38:18.891Z,29.00
2018-04-22T14:40:49.520Z,28.60
2018-04-22T14:43:20.202Z,28.00
2018-04-22T14:46:14.030Z,27.10
2018-04-22T14:48:54.655Z,27.10
2018-04-22T14:51:25.061Z,27.10
2018-04-22T14:53:55.621Z,27.40
2018-04-22T14:56:26.147Z,27.50
2018-04-22T14:58:57.135Z,27.40
2018-04-22T15:01:27.894Z,27.20
2018-04-22T15:03:58.327Z,27.20
2018-04-22T15:06:28.756Z,27.40
2018-04-22T15:08:59.276Z,27.30
2018-04-22T15:11:30.681Z,27.80
2018-04-22T15:14:01.880Z,27.40
2018-04-22T15:16:32.627Z,27.40
2018-04-22T15:19:03.725Z,27.30
2018-04-22T15:21:34.122Z,27.40
2018-04-22T15:24:05.759Z,27.70
2018-04-22T15:26:36.286Z,27.70
2018-04-22T15:29:06.758Z,27.90
2018-04-22T15:31:37.766Z,27.70
2018-04-22T15:34:08.748Z,27.50
2018-04-22T15:36:39.291Z,27.40
2018-04-22T15:39:16.203Z,27.30
2018-04-22T15:41:46.614Z,27.40
2018-04-22T15:44:17.213Z,27.10
2018-04-22T15:46:48.297Z,26.80
2018-04-22T15:49:18.857Z,26.80
2018-04-22T15:51:49.382Z,27.00
2018-04-22T15:54:20.567Z,26.80
2018-04-22T15:56:54.539Z,26.80
2018-04-22T15:59:25.070Z,27.00
2018-04-22T16:01:56.393Z,27.20
2018-04-22T16:04:26.842Z,27.20
2018-04-22T16:06:57.409Z,27.30
2018-04-22T16:09:28.057Z,27.10
2018-04-22T16:12:02.736Z,27.00
2018-04-22T16:14:33.557Z,27.00
2018-04-22T16:17:04.249Z,27.00
2018-04-22T16:19:38.651Z,26.90
2018-04-22T16:22:10.815Z,26.70
2018-04-22T16:24:44.221Z,26.60
2018-04-22T16:27:17.475Z,26.60
2018-04-22T16:29:53.094Z,26.20
2018-04-22T16:32:26.183Z,26.20
2018-04-22T16:34:59.494Z,25.80
2018-04-22T16:37:33.952Z,25.50
2018-04-22T16:40:07.693Z,25.50
2018-04-22T16:42:41.102Z,25.30
2018-04-22T16:45:15.393Z,25.10
2018-04-22T16:47:49.086Z,25.00
2018-04-22T16:50:32.439Z,24.90
2018-04-22T16:53:06.068Z,24.80
2018-04-22T16:55:37.376Z,24.70
2018-04-22T16:58:10.905Z,24.70
2018-04-22T17:00:43.101Z,24.80
2018-04-22T17:03:16.581Z,24.70
2018-04-22T17:05:52.444Z,24.30
2018-04-22T17:08:25.266Z,24.20
2018-04-22T17:10:57.860Z,23.90
2018-04-22T17:13:31.725Z,23.80
2018-04-22T17:16:04.131Z,23.80
2018-04-22T17:18:34.744Z,23.90
2018-04-22T17:21:05.255Z,23.90
2018-04-22T17:23:36.782Z,23.50
2018-04-22T17:26:07.954Z,23.40
2018-04-22T17:28:38.661Z,23.30
2018-04-22T17:31:09.255Z,23.20
2018-04-22T17:33:41.820Z,23.10
2018-04-22T17:36:12.541Z,23.00
2018-04-22T17:38:43.132Z,23.00
2018-04-22T17:41:13.703Z,23.00
2018-04-22T17:43:44.251Z,23.10
2018-04-22T17:46:14.771Z,23.10
2018-04-22T17:48:46.505Z,22.60
2018-04-22T17:51:17.112Z,22.60
2018-04-22T17:53:48.688Z,22.50
2018-04-22T17:56:19.383Z,22.40
2018-04-22T17:59:22.240Z,22.30
2018-04-22T18:01:52.936Z,22.30
2018-04-22T18:04:23.451Z,22.30
2018-04-22T18:07:07.800Z,22.20
2018-04-22T18:09:38.373Z,22.20
2018-04-22T18:12:09.014Z,22.10
2018-04-22T18:14:39.476Z,22.00
2018-04-22T18:17:10.110Z,22.00
2018-04-22T18:19:41.042Z,21.90
2018-04-22T18:22:11.468Z,21.90
2018-04-22T18:24:43.484Z,21.90
2018-04-22T18:27:15.413Z,21.80
2018-04-22T18:29:45.908Z,21.70
2018-04-22T18:32:16.394Z,21.60
2018-04-22T18:34:58.283Z,21.50
2018-04-22T18:37:28.768Z,21.40
2018-04-22T18:39:59.165Z,21.50
2018-04-22T18:42:29.714Z,21.50
2018-04-22T18:45:00.142Z,21.50
2018-04-22T18:47:30.684Z,21.40
2018-04-22T18:50:01.778Z,21.50
2018-04-22T18:52:32.204Z,21.40
2018-04-22T18:55:02.795Z,21.30
2018-04-22T18:57:34.680Z,21.30
2018-04-22T19:00:05.420Z,21.30
2018-04-22T19:02:35.821Z,21.30
2018-04-22T19:05:22.484Z,21.30
2018-04-22T19:07:52.974Z,21.10
2018-04-22T19:10:23.447Z,20.90
2018-04-22T19:12:54.445Z,20.80
2018-04-22T19:15:25.711Z,20.60
2018-04-22T19:17:58.517Z,20.00
2018-04-22T19:20:28.940Z,20.00
2018-04-22T19:22:59.393Z,20.10
2018-04-22T19:25:29.873Z,20.10
2018-04-22T19:28:05.423Z,20.00
2018-04-22T19:30:35.844Z,19.70
2018-04-22T19:33:06.457Z,19.30
2018-04-22T19:35:36.949Z,19.20
2018-04-22T19:38:08.227Z,19.00
2018-04-22T19:40:38.768Z,19.10
2018-04-22T19:43:14.850Z,19.20
2018-04-22T19:45:46.274Z,18.60
2018-04-22T19:48:28.643Z,18.70
2018-04-22T19:50:59.168Z,18.90
2018-04-22T19:53:29.922Z,18.20
2018-04-22T19:56:06.617Z,18.30
2018-04-22T19:58:37.810Z,18.90
2018-04-22T20:01:09.040Z,19.20
2018-04-22T20:03:39.631Z,19.20
2018-04-22T20:06:10.333Z,19.20
2018-04-22T20:08:40.792Z,19.10
2018-04-22T20:11:16.406Z,18.70
2018-04-22T20:13:46.833Z,18.70
2018-04-22T20:16:17.649Z,18.80
2018-04-22T20:18:48.070Z,18.90
2018-04-22T20:21:18.716Z,19.10
2018-04-22T20:23:49.105Z,19.20
2018-04-22T20:26:24.550Z,19.20
2018-04-22T20:28:55.267Z,19.10
2018-04-22T20:31:26.733Z,19.00
2018-04-22T20:34:19.808Z,19.00
2018-04-22T20:36:50.315Z,18.90
2018-04-22T20:39:20.775Z,19.00
2018-04-22T20:41:51.370Z,19.00
2018-04-22T20:44:23.022Z,18.90
2018-04-22T20:46:53.680Z,18.90
2018-04-22T20:49:24.260Z,18.90
2018-04-22T20:51:54.860Z,18.80
2018-04-22T20:54:26.158Z,18.60
2018-04-22T20:56:57.582Z,18.60
2018-04-22T20:59:28.257Z,18.60
2018-04-22T21:01:59.074Z,18.60
2018-04-22T21:04:29.641Z,18.70
2018-04-22T21:07:00.211Z,18.60
2018-04-22T21:09:43.116Z,17.60
2018-04-22T21:12:13.544Z,17.20
2018-04-22T21:14:44.161Z,17.10
2018-04-22T21:17:14.718Z,17.20
2018-04-22T21:19:45.149Z,17.30
2018-04-22T21:22:15.628Z,17.40
2018-04-22T21:24:46.217Z,17.50
2018-04-22T21:27:16.677Z,17.60
2018-04-22T21:29:47.315Z,17.70
2018-04-22T21:32:17.820Z,17.70
2018-04-22T21:34:48.240Z,17.70
2018-04-22T21:37:20.061Z,17.60
2018-04-22T21:39:50.640Z,17.60
2018-04-22T21:42:21.101Z,17.60
2018-04-22T21:45:03.308Z,17.50
2018-04-22T21:47:33.940Z,17.60
2018-04-22T21:50:04.527Z,17.60
2018-04-22T21:52:43.052Z,17.50
2018-04-22T21:55:13.775Z,17.40
2018-04-22T21:57:45.119Z,17.40
2018-04-22T22:00:15.747Z,17.40
2018-04-22T22:05:47.378Z,17.30
2018-04-22T22:08:17.949Z,17.20
2018-04-22T22:10:48.536Z,17.20
2018-04-22T22:13:19.036Z,17.30
2018-04-22T22:15:49.581Z,17.30
2018-04-22T22:18:20.078Z,17.20
2018-04-22T22:20:50.577Z,17.20
2018-04-22T22:23:21.162Z,17.10
2018-04-22T22:25:57.905Z,17.20
2018-04-22T22:28:28.649Z,17.20
2018-04-22T22:30:59.265Z,17.10
2018-04-22T22:36:47.609Z,17.00
2018-04-22T22:39:18.118Z,16.90
2018-04-22T22:42:06.588Z,16.80
2018-04-22T22:44:37.072Z,16.70
2018-04-22T22:47:07.884Z,16.60
2018-04-22T22:49:39.079Z,16.50
2018-04-22T22:52:10.060Z,16.50
2018-04-22T22:54:40.564Z,16.20
2018-04-22T22:57:11.093Z,16.10
2018-04-22T22:59:41.600Z,16.10
2018-04-22T23:02:11.949Z,16.10
2018-04-22T23:04:42.564Z,16.20
2018-04-22T23:07:13.170Z,16.20
2018-04-22T23:09:43.493Z,16.20
2018-04-22T23:12:13.827Z,16.20
2018-04-22T23:14:44.332Z,16.20
2018-04-22T23:17:14.739Z,16.20
2018-04-22T23:19:46.044Z,16.10
2018-04-22T23:22:16.507Z,16.10
2018-04-22T23:24:47.506Z,16.10
2018-04-22T23:27:19.952Z,16.00
2018-04-22T23:29:50.473Z,16.00
2018-04-22T23:35:24.776Z,15.90
2018-04-22T23:37:56.208Z,15.80
2018-04-22T23:40:27.432Z,15.80
2018-04-22T23:43:03.689Z,15.80
2018-04-22T23:45:34.126Z,15.80
2018-04-22T23:48:04.475Z,15.70
2018-04-22T23:50:34.827Z,15.70
2018-04-22T23:53:05.773Z,15.70
2018-04-22T23:55:36.168Z,15.70
2018-04-22T23:58:06.641Z,15.60
